Time;durP1;ratioP1;P1;durP2;ratioP2;P2;SDS_P1;SDS_P2;PMS_P1;PMS_P2;Temp;Humidity;BMP_temperature;BMP_pressure;BME280_temperature;BME280_humidity;BME280_pressure;Samples;Min_cycle;Max_cycle;Signal;HPM_P1;HPM_P2
2022/10/25 00:00:46;;;;;;;;;;;;;;;;;;;;;
2022/10/25 00:03:29;;;;;;;;;;;;;;;;;;4958774;28;19903;-87
2022/10/25 00:06:21;;;;;;;;;;;;;;;;;;5260492;23;19926;-87
2022/10/25 00:09:03;;;;;;;;;;;;;;;;;;4943690;28;19903;-86
2022/10/25 00:22:22;;;;;;;;;;;;;;;;;;6127700;23;19943;-85
2022/10/25 00:25:35;;;;;;;;;;;;;;;;;;5192524;23;19918;-88
2022/10/25 00:28:07;;;;;;;;;;;;;;;;;;5017101;28;19969;-87
2022/10/25 00:31:08;;;;;;;;;;;;;;;;;;4986690;28;19906;-88
2022/10/25 00:33:46;;;;;;;;;;;;;;;;;;5001090;28;19930;-87
2022/10/25 00:36:25;;;;;;;;;;;;;;;;;;4985415;28;19981;-87
2022/10/25 00:42:03;;;;;;;;;;;;;;;;;;4954565;29;19949;-88
2022/10/25 00:52:55;;;;;;;;;;;;;;;;;;5881308;23;19934;-87
2022/10/25 00:58:30;;;;;;;;;;;;;;;;;;5406561;23;19910;-88
2022/10/25 01:25:56;;;;;;;;;;;;;;;;;;5431331;23;19909;-87
2022/10/25 01:28:32;;;;;;;;;;;;;;;;;;5047330;28;19964;-89
2022/10/25 01:31:46;;;;;;;;;;;;;;;;;;5033930;28;19901;-87
2022/10/25 01:40:11;;;;;;;;;;;;;;;;;;5105119;23;19912;-87
2022/10/25 01:48:45;;;;;;;;;;;;;;;;;;5788059;23;19945;-87
2022/10/25 01:52:15;;;;;;;;;;;;;;;;;;5011771;28;19909;-87
2022/10/25 01:58:12;;;;;;;;;;;;;;;;;;5820020;23;19910;-87
2022/10/25 02:07:01;;;;;;;;;;;;;;;;;;5890964;23;19917;-86
2022/10/25 02:13:20;;;;;;;;;;;;;;;;;;5538912;23;19910;-89
2022/10/25 02:19:06;;;;;;;;;;;;;;;;;;5501773;23;19918;-86
2022/10/25 02:32:56;;;;;;;;;;;;;;;;;;5237816;23;19930;-87
2022/10/25 02:38:39;;;;;;;;;;;;;;;;;;4962131;29;19945;-88
2022/10/25 02:41:22;;;;;;;;;;;;;;;;;;4978196;28;19910;-88
2022/10/25 02:52:04;;;;;;;;;;;;;;;;;;5077109;23;19910;-87
2022/10/25 02:54:35;;;;;;;;;;;;;;;;;;4982397;28;19910;-88
2022/10/25 02:57:15;;;;;;;;;;;;;;;;;;4965705;28;19922;-88
2022/10/25 03:00:01;;;;;;;;;;;;;;;;;;5341708;23;19925;-86
2022/10/25 03:16:13;;;;;;;;;;;;;;;;;;5030257;28;19929;-88
2022/10/25 03:18:38;;;;;;;;;;;;;;;;;;4999615;28;20372;-87
2022/10/25 03:21:03;;;;;;;;;;;;;;;;;;4999544;28;19936;-87
2022/10/25 03:23:29;;;;;;;;;;;;;;;;;;4998567;28;20007;-88
2022/10/25 03:25:54;;;;;;;;;;;;;;;;;;4995730;28;20000;-86
2022/10/25 03:28:19;;;;;;;;;;;;;;;;;;4980037;28;19921;-89
2022/10/25 03:30:45;;;;;;;;;;;;;;;;;;4979629;28;20371;-89
2022/10/25 03:33:10;;;;;;;;;;;;;;;;;;4959945;28;19961;-88
2022/10/25 03:35:35;;;;;;;;;;;;;;;;;;4959956;28;20020;-87
2022/10/25 03:38:01;;;;;;;;;;;;;;;;;;4976330;28;19914;-89
2022/10/25 03:40:26;;;;;;;;;;;;;;;;;;4993209;28;19917;-89
2022/10/25 03:42:52;;;;;;;;;;;;;;;;;;4966835;28;19917;-89
2022/10/25 03:45:17;;;;;;;;;;;;;;;;;;4953510;28;19918;-88
2022/10/25 03:47:42;;;;;;;;;;;;;;;;;;4964808;28;19920;-90
2022/10/25 03:50:08;;;;;;;;;;;;;;;;;;4981283;28;19914;-90
2022/10/25 03:52:33;;;;;;;;;;;;;;;;;;4967094;28;20384;-90
2022/10/25 03:54:58;;;;;;;;;;;;;;;;;;4981037;28;19925;-89
2022/10/25 03:57:24;;;;;;;;;;;;;;;;;;4980851;28;19924;-89
2022/10/25 03:59:49;;;;;;;;;;;;;;;;;;4995983;28;19914;-90
2022/10/25 04:02:15;;;;;;;;;;;;;;;;;;4963820;28;19936;-87
2022/10/25 04:04:40;;;;;;;;;;;;;;;;;;4995557;28;19921;-88
2022/10/25 04:07:05;;;;;;;;;;;;;;;;;;4994900;28;19979;-88
2022/10/25 04:09:31;;;;;;;;;;;;;;;;;;4995160;28;19921;-89
2022/10/25 04:11:56;;;;;;;;;;;;;;;;;;4995339;28;19914;-88
2022/10/25 04:14:21;;;;;;;;;;;;;;;;;;4994217;28;19993;-88
2022/10/25 04:16:47;;;;;;;;;;;;;;;;;;4995313;28;19943;-88
2022/10/25 04:19:12;;;;;;;;;;;;;;;;;;4969884;28;20275;-87
2022/10/25 04:21:37;;;;;;;;;;;;;;;;;;4992970;28;19918;-87
2022/10/25 04:24:03;;;;;;;;;;;;;;;;;;4959490;28;20300;-88
2022/10/25 04:26:28;;;;;;;;;;;;;;;;;;4975599;28;20361;-88
2022/10/25 04:28:54;;;;;;;;;;;;;;;;;;4959544;28;19913;-88
2022/10/25 04:31:19;;;;;;;;;;;;;;;;;;4976051;28;19924;-89
2022/10/25 04:33:44;;;;;;;;;;;;;;;;;;4991072;28;19953;-88
2022/10/25 04:36:10;;;;;;;;;;;;;;;;;;4959343;28;19921;-88
2022/10/25 04:38:35;;;;;;;;;;;;;;;;;;4992980;28;20373;-88
2022/10/25 04:41:01;;;;;;;;;;;;;;;;;;4943561;28;19914;-87
2022/10/25 04:43:26;;;;;;;;;;;;;;;;;;4992383;28;19918;-89
2022/10/25 04:45:52;;;;;;;;;;;;;;;;;;4975315;28;20510;-90
2022/10/25 04:48:17;;;;;;;;;;;;;;;;;;4959351;28;20022;-88
2022/10/25 04:50:42;;;;;;;;;;;;;;;;;;4993945;28;20395;-89
2022/10/25 04:53:08;;;;;;;;;;;;;;;;;;4979998;28;19995;-89
2022/10/25 04:55:33;;;;;;;;;;;;;;;;;;4979940;28;20284;-89
2022/10/25 04:57:59;;;;;;;;;;;;;;;;;;4996473;28;19963;-90
2022/10/25 05:00:24;;;;;;;;;;;;;;;;;;4996328;28;20452;-90
2022/10/25 05:02:49;;;;;;;;;;;;;;;;;;4965902;28;20313;-89
2022/10/25 05:05:15;;;;;;;;;;;;;;;;;;4979728;28;19913;-89
2022/10/25 05:07:40;;;;;;;;;;;;;;;;;;4947140;28;19956;-91
2022/10/25 05:10:05;;;;;;;;;;;;;;;;;;4964054;28;19920;-89
2022/10/25 05:12:31;;;;;;;;;;;;;;;;;;4946701;28;20409;-89
2022/10/25 05:14:56;;;;;;;;;;;;;;;;;;4947383;28;20008;-90
2022/10/25 05:17:22;;;;;;;;;;;;;;;;;;4946700;28;19921;-90
2022/10/25 05:19:47;;;;;;;;;;;;;;;;;;4963074;28;19965;-90
2022/10/25 05:22:12;;;;;;;;;;;;;;;;;;4951877;28;19952;-90
2022/10/25 05:24:38;;;;;;;;;;;;;;;;;;4965924;28;19921;-91
2022/10/25 05:27:03;;;;;;;;;;;;;;;;;;4998168;28;19952;-90
2022/10/25 05:29:29;;;;;;;;;;;;;;;;;;4998210;28;19917;-89
2022/10/25 05:31:54;;;;;;;;;;;;;;;;;;4997702;28;19921;-90
2022/10/25 05:34:19;;;;;;;;;;;;;;;;;;4981644;28;19924;-91
2022/10/25 05:36:45;;;;;;;;;;;;;;;;;;5006676;28;19913;-89
2022/10/25 05:39:11;;;;;;;;;;;;;;;;;;5013045;28;19913;-90
2022/10/25 05:41:36;;;;;;;;;;;;;;;;;;4986659;28;19920;-87
2022/10/25 05:44:02;;;;;;;;;;;;;;;;;;4998368;28;19913;-91
2022/10/25 05:46:27;;;;;;;;;;;;;;;;;;4969047;28;19920;-90
2022/10/25 05:48:55;;;;;;;;;;;;;;;;;;4999971;28;20400;-90
2022/10/25 05:51:21;;;;;;;;;;;;;;;;;;4985969;28;19936;-92
2022/10/25 05:53:46;;;;;;;;;;;;;;;;;;4983057;28;19913;-90
2022/10/25 05:56:12;;;;;;;;;;;;;;;;;;5000762;28;20011;-90
2022/10/25 05:58:37;;;;;;;;;;;;;;;;;;4988006;28;19913;-90
2022/10/25 06:01:02;;;;;;;;;;;;;;;;;;4995524;28;19913;-89
2022/10/25 06:03:28;;;;;;;;;;;;;;;;;;5005509;28;20290;-90
2022/10/25 06:05:53;;;;;;;;;;;;;;;;;;4967723;28;19920;-89
2022/10/25 06:08:19;;;;;;;;;;;;;;;;;;5000929;28;19914;-91
2022/10/25 06:10:44;;;;;;;;;;;;;;;;;;4984886;28;19914;-90
2022/10/25 06:13:09;;;;;;;;;;;;;;;;;;4997701;28;19913;-91
2022/10/25 06:15:37;;;;;;;;;;;;;;;;;;4982222;28;20373;-91
2022/10/25 06:18:02;;;;;;;;;;;;;;;;;;4967181;28;19913;-91
2022/10/25 06:20:27;;;;;;;;;;;;;;;;;;4971500;28;19968;-90
2022/10/25 06:22:53;;;;;;;;;;;;;;;;;;5000997;28;19914;-88
2022/10/25 06:25:18;;;;;;;;;;;;;;;;;;5003890;28;19996;-88
2022/10/25 06:27:43;;;;;;;;;;;;;;;;;;4999887;28;19914;-89
2022/10/25 06:30:09;;;;;;;;;;;;;;;;;;4970827;28;19980;-90
2022/10/25 06:32:36;;;;;;;;;;;;;;;;;;5011899;28;19918;-88
2022/10/25 06:35:02;;;;;;;;;;;;;;;;;;4970782;28;19952;-90
2022/10/25 06:37:27;;;;;;;;;;;;;;;;;;4986581;28;19922;-89
2022/10/25 06:39:53;;;;;;;;;;;;;;;;;;4985890;28;19914;-90
2022/10/25 06:42:18;;;;;;;;;;;;;;;;;;4954342;28;19953;-90
2022/10/25 06:44:43;;;;;;;;;;;;;;;;;;4985060;28;20369;-89
2022/10/25 06:47:09;;;;;;;;;;;;;;;;;;4997552;28;19913;-91
2022/10/25 06:49:34;;;;;;;;;;;;;;;;;;4981014;28;19944;-90
2022/10/25 06:51:59;;;;;;;;;;;;;;;;;;4981550;28;19914;-89
2022/10/25 06:54:25;;;;;;;;;;;;;;;;;;4964935;28;19925;-90
2022/10/25 06:56:51;;;;;;;;;;;;;;;;;;4997080;28;19960;-91
2022/10/25 06:59:18;;;;;;;;;;;;;;;;;;4981534;28;19913;-89
2022/10/25 07:01:43;;;;;;;;;;;;;;;;;;4978145;28;19913;-91
2022/10/25 07:04:09;;;;;;;;;;;;;;;;;;4962309;28;19920;-90
2022/10/25 07:06:34;;;;;;;;;;;;;;;;;;4999613;28;19910;-90
2022/10/25 07:08:59;;;;;;;;;;;;;;;;;;5005299;28;19937;-88
2022/10/25 07:11:25;;;;;;;;;;;;;;;;;;4982972;28;20379;-89
2022/10/25 07:13:50;;;;;;;;;;;;;;;;;;4995072;28;19917;-92
2022/10/25 07:16:15;;;;;;;;;;;;;;;;;;4977053;28;19925;-90
2022/10/25 07:18:41;;;;;;;;;;;;;;;;;;4991997;28;20388;-91
2022/10/25 07:21:06;;;;;;;;;;;;;;;;;;4976849;28;19945;-91
2022/10/25 07:23:31;;;;;;;;;;;;;;;;;;4960313;28;19914;-91
2022/10/25 07:25:57;;;;;;;;;;;;;;;;;;4976078;28;20315;-90
2022/10/25 07:28:22;;;;;;;;;;;;;;;;;;4961250;28;20044;-90
2022/10/25 07:30:47;;;;;;;;;;;;;;;;;;4976985;28;19924;-90
2022/10/25 07:33:13;;;;;;;;;;;;;;;;;;4977189;28;19914;-91
2022/10/25 07:35:38;;;;;;;;;;;;;;;;;;4977698;28;20392;-91
2022/10/25 07:38:04;;;;;;;;;;;;;;;;;;4976844;28;20265;-89
2022/10/25 07:40:29;;;;;;;;;;;;;;;;;;4979588;28;19921;-89
2022/10/25 07:42:54;;;;;;;;;;;;;;;;;;4993102;28;19914;-92
2022/10/25 07:45:20;;;;;;;;;;;;;;;;;;4961253;28;19913;-92
2022/10/25 07:47:45;;;;;;;;;;;;;;;;;;4978009;28;19944;-93
2022/10/25 07:50:10;;;;;;;;;;;;;;;;;;4962075;28;20000;-90
2022/10/25 07:52:36;;;;;;;;;;;;;;;;;;4991649;28;20381;-91
2022/10/25 07:55:01;;;;;;;;;;;;;;;;;;5000780;28;20178;-87
2022/10/25 07:57:27;;;;;;;;;;;;;;;;;;5003468;28;19945;-87
2022/10/25 07:59:52;;;;;;;;;;;;;;;;;;5024439;28;19918;-85
2022/10/25 08:02:18;;;;;;;;;;;;;;;;;;4985935;28;20020;-86
2022/10/25 08:04:43;;;;;;;;;;;;;;;;;;4995255;28;19914;-87
2022/10/25 08:07:09;;;;;;;;;;;;;;;;;;4995556;28;19913;-86
2022/10/25 08:09:34;;;;;;;;;;;;;;;;;;4994688;28;20396;-85
2022/10/25 08:12:00;;;;;;;;;;;;;;;;;;5013615;28;19913;-81
2022/10/25 08:14:25;;;;;;;;;;;;;;;;;;5023679;28;19917;-90
2022/10/25 08:16:50;;;;;;;;;;;;;;;;;;5003045;28;19921;-88
2022/10/25 08:19:16;;;;;;;;;;;;;;;;;;4996361;28;19965;-89
2022/10/25 08:21:41;;;;;;;;;;;;;;;;;;5013400;28;19913;-89
2022/10/25 08:24:06;;;;;;;;;;;;;;;;;;4995130;28;19920;-89
2022/10/25 08:26:32;;;;;;;;;;;;;;;;;;4986305;28;19920;-89
2022/10/25 08:28:57;;;;;;;;;;;;;;;;;;4991022;28;20004;-88
2022/10/25 08:31:23;;;;;;;;;;;;;;;;;;4991044;28;19917;-89
2022/10/25 08:33:48;;;;;;;;;;;;;;;;;;5002575;28;19968;-90
2022/10/25 08:36:13;;;;;;;;;;;;;;;;;;5012053;28;20390;-89
2022/10/25 08:38:39;;;;;;;;;;;;;;;;;;4987199;28;19917;-88
2022/10/25 08:41:05;;;;;;;;;;;;;;;;;;4963948;28;20286;-90
2022/10/25 08:43:30;;;;;;;;;;;;;;;;;;4962911;28;19914;-91
2022/10/25 08:45:56;;;;;;;;;;;;;;;;;;4989681;28;19913;-92
2022/10/25 08:48:21;;;;;;;;;;;;;;;;;;4989939;28;20393;-91
2022/10/25 08:50:47;;;;;;;;;;;;;;;;;;4996563;28;19917;-90
2022/10/25 08:53:13;;;;;;;;;;;;;;;;;;4984924;28;20273;-94
2022/10/25 08:55:38;;;;;;;;;;;;;;;;;;4990865;28;19965;-92
2022/10/25 08:58:04;;;;;;;;;;;;;;;;;;4978905;28;20457;-95
2022/10/25 09:00:29;;;;;;;;;;;;;;;;;;4967310;28;19921;-94
2022/10/25 09:02:55;;;;;;;;;;;;;;;;;;4997386;28;19914;-93
2022/10/25 09:05:20;;;;;;;;;;;;;;;;;;4984705;28;20356;-93
2022/10/25 09:07:45;;;;;;;;;;;;;;;;;;5000955;28;19917;-94
2022/10/25 09:10:11;;;;;;;;;;;;;;;;;;4972784;28;20339;-93
2022/10/25 09:12:36;;;;;;;;;;;;;;;;;;4951801;28;19918;-93
2022/10/25 09:15:02;;;;;;;;;;;;;;;;;;4960691;23;20393;-84
2022/10/25 09:17:27;;;;;;;;;;;;;;;;;;4993066;28;20361;-84
2022/10/25 09:19:53;;;;;;;;;;;;;;;;;;4993747;28;20404;-82
2022/10/25 09:22:18;;;;;;;;;;;;;;;;;;4978497;28;20163;-83
2022/10/25 09:24:43;;;;;;;;;;;;;;;;;;4977805;28;20296;-84
2022/10/25 09:27:09;;;;;;;;;;;;;;;;;;4994101;28;19925;-83
2022/10/25 09:29:34;;;;;;;;;;;;;;;;;;4995340;28;19922;-82
2022/10/25 09:32:00;;;;;;;;;;;;;;;;;;4976189;28;20289;-83
2022/10/25 09:34:25;;;;;;;;;;;;;;;;;;4949977;28;19976;-79
2022/10/25 09:36:50;;;;;;;;;;;;;;;;;;4998205;28;19998;-82
2022/10/25 09:39:16;;;;;;;;;;;;;;;;;;4958657;28;20357;-83
2022/10/25 09:41:42;;;;;;;;;;;;;;;;;;4942343;28;19914;-85
2022/10/25 09:44:07;;;;;;;;;;;;;;;;;;4957929;28;19914;-85
2022/10/25 09:46:32;;;;;;;;;;;;;;;;;;4942418;28;20329;-85
2022/10/25 09:48:58;;;;;;;;;;;;;;;;;;4973245;28;19936;-84
2022/10/25 09:51:23;;;;;;;;;;;;;;;;;;4958395;28;20469;-85
2022/10/25 09:53:49;;;;;;;;;;;;;;;;;;4952844;28;19917;-86
2022/10/25 09:56:16;;;;;;;;;;;;;;;;;;4981823;28;19929;-85
2022/10/25 09:58:43;;;;;;;;;;;;;;;;;;4966362;28;19914;-86
2022/10/25 10:01:09;;;;;;;;;;;;;;;;;;5010747;28;19920;-84
2022/10/25 10:03:34;;;;;;;;;;;;;;;;;;4992825;28;19918;-82
2022/10/25 10:06:00;;;;;;;;;;;;;;;;;;4961048;28;19910;-84
2022/10/25 10:08:25;;;;;;;;;;;;;;;;;;4960947;28;20373;-85
2022/10/25 10:10:51;;;;;;;;;;;;;;;;;;4988220;28;20306;-85
2022/10/25 10:13:16;;;;;;;;;;;;;;;;;;4992338;28;19914;-85
2022/10/25 10:15:42;;;;;;;;;;;;;;;;;;4996401;28;19917;-84
2022/10/25 10:18:07;;;;;;;;;;;;;;;;;;5002090;28;19918;-83
2022/10/25 10:20:32;;;;;;;;;;;;;;;;;;5004902;28;19914;-83
2022/10/25 10:22:58;;;;;;;;;;;;;;;;;;4969833;28;19996;-82
2022/10/25 10:25:23;;;;;;;;;;;;;;;;;;4984952;28;20322;-85
2022/10/25 10:27:48;;;;;;;;;;;;;;;;;;4998228;28;19920;-84
2022/10/25 10:30:14;;;;;;;;;;;;;;;;;;4983004;28;19981;-85
2022/10/25 10:32:39;;;;;;;;;;;;;;;;;;4999478;28;19914;-84
2022/10/25 10:35:05;;;;;;;;;;;;;;;;;;4994201;28;19918;-83
2022/10/25 10:37:31;;;;;;;;;;;;;;;;;;4993996;28;19940;-84
2022/10/25 10:39:56;;;;;;;;;;;;;;;;;;4961287;28;20024;-83
2022/10/25 10:42:22;;;;;;;;;;;;;;;;;;4992636;28;20381;-84
2022/10/25 10:44:47;;;;;;;;;;;;;;;;;;4991893;28;19909;-83
2022/10/25 10:47:12;;;;;;;;;;;;;;;;;;4975753;28;19972;-84
2022/10/25 10:49:38;;;;;;;;;;;;;;;;;;4976912;28;20024;-83
2022/10/25 10:52:03;;;;;;;;;;;;;;;;;;4976301;28;19914;-82
2022/10/25 10:54:29;;;;;;;;;;;;;;;;;;4975802;28;19921;-83
2022/10/25 10:56:54;;;;;;;;;;;;;;;;;;4992180;28;19941;-83
2022/10/25 10:59:20;;;;;;;;;;;;;;;;;;4992219;28;20282;-83
2022/10/25 11:01:45;;;;;;;;;;;;;;;;;;4989300;28;19915;-84
2022/10/25 11:04:11;;;;;;;;;;;;;;;;;;5006859;28;19914;-84
2022/10/25 11:06:36;;;;;;;;;;;;;;;;;;4992012;28;19914;-84
2022/10/25 11:09:02;;;;;;;;;;;;;;;;;;4992846;28;19980;-84
2022/10/25 11:11:27;;;;;;;;;;;;;;;;;;4975522;28;20273;-82
2022/10/25 11:13:53;;;;;;;;;;;;;;;;;;4993099;28;19928;-83
2022/10/25 11:16:18;;;;;;;;;;;;;;;;;;4975001;28;19925;-83
2022/10/25 11:18:44;;;;;;;;;;;;;;;;;;4991640;28;20448;-84
2022/10/25 11:21:09;;;;;;;;;;;;;;;;;;4986547;28;19914;-84
2022/10/25 11:23:35;;;;;;;;;;;;;;;;;;4992180;28;19914;-84
2022/10/25 11:26:01;;;;;;;;;;;;;;;;;;4991410;28;19914;-84
2022/10/25 11:28:27;;;;;;;;;;;;;;;;;;4991496;28;20064;-83
2022/10/25 11:30:52;;;;;;;;;;;;;;;;;;4991329;28;20389;-83
2022/10/25 11:33:18;;;;;;;;;;;;;;;;;;4990698;28;19914;-83
2022/10/25 11:35:43;;;;;;;;;;;;;;;;;;4990598;28;19914;-83
2022/10/25 11:38:09;;;;;;;;;;;;;;;;;;4988515;28;19914;-84
2022/10/25 11:40:34;;;;;;;;;;;;;;;;;;4975308;28;20001;-84
2022/10/25 11:42:59;;;;;;;;;;;;;;;;;;4990988;28;19942;-83
2022/10/25 11:45:25;;;;;;;;;;;;;;;;;;4974763;28;19914;-83
2022/10/25 11:47:50;;;;;;;;;;;;;;;;;;4991297;28;19921;-82
2022/10/25 11:50:18;;;;;;;;;;;;;;;;;;4974943;28;19937;-82
2022/10/25 11:52:43;;;;;;;;;;;;;;;;;;4972680;28;19914;-83
2022/10/25 11:55:09;;;;;;;;;;;;;;;;;;4973258;28;19925;-84
2022/10/25 11:57:34;;;;;;;;;;;;;;;;;;4971559;28;19925;-83
2022/10/25 12:00:00;;;;;;;;;;;;;;;;;;4987593;28;19969;-84
2022/10/25 12:02:28;;;;;;;;;;;;;;;;;;4954716;28;20305;-83
2022/10/25 12:04:53;;;;;;;;;;;;;;;;;;4971593;28;19914;-83
2022/10/25 12:07:19;;;;;;;;;;;;;;;;;;4955760;28;20289;-83
2022/10/25 12:09:45;;;;;;;;;;;;;;;;;;4988005;28;19941;-83
2022/10/25 12:12:22;;;;;;;;;;;;;;;;;;4983279;28;19917;-84
2022/10/25 12:14:48;;;;;;;;;;;;;;;;;;4994979;28;20293;-84
2022/10/25 12:17:13;;;;;;;;;;;;;;;;;;4995054;28;20266;-83
2022/10/25 12:19:39;;;;;;;;;;;;;;;;;;4996143;28;20448;-85
2022/10/25 12:22:04;;;;;;;;;;;;;;;;;;4996247;28;19928;-83
2022/10/25 12:24:29;;;;;;;;;;;;;;;;;;4994510;28;20440;-83
2022/10/25 12:26:55;;;;;;;;;;;;;;;;;;4995165;28;20008;-83
2022/10/25 12:29:21;;;;;;;;;;;;;;;;;;4990882;28;20274;-81
2022/10/25 12:31:46;;;;;;;;;;;;;;;;;;4994446;28;20276;-83
2022/10/25 12:34:12;;;;;;;;;;;;;;;;;;4993915;28;19922;-82
2022/10/25 12:36:37;;;;;;;;;;;;;;;;;;4994029;28;19914;-83
2022/10/25 12:39:03;;;;;;;;;;;;;;;;;;4995329;28;19969;-82
2022/10/25 12:41:28;;;;;;;;;;;;;;;;;;4995356;28;20258;-83
2022/10/25 12:43:54;;;;;;;;;;;;;;;;;;4994974;28;20270;-81
2022/10/25 12:46:19;;;;;;;;;;;;;;;;;;4973593;28;20432;-81
2022/10/25 12:48:45;;;;;;;;;;;;;;;;;;4994042;28;19998;-82
2022/10/25 12:51:10;;;;;;;;;;;;;;;;;;4993693;28;19921;-81
2022/10/25 12:53:36;;;;;;;;;;;;;;;;;;4977463;28;20235;-82
2022/10/25 12:56:01;;;;;;;;;;;;;;;;;;4993880;28;20381;-82
2022/10/25 12:58:27;;;;;;;;;;;;;;;;;;4994045;28;20245;-83
2022/10/25 13:00:52;;;;;;;;;;;;;;;;;;4995101;28;20436;-82
2022/10/25 13:03:18;;;;;;;;;;;;;;;;;;4988707;28;20289;-81
2022/10/25 13:05:43;;;;;;;;;;;;;;;;;;4994985;28;20500;-82
2022/10/25 13:08:09;;;;;;;;;;;;;;;;;;4995153;28;20369;-82
2022/10/25 13:10:34;;;;;;;;;;;;;;;;;;4977831;28;19917;-81
2022/10/25 13:13:00;;;;;;;;;;;;;;;;;;4993883;28;19921;-81
2022/10/25 13:15:25;;;;;;;;;;;;;;;;;;4994145;28;19921;-84
2022/10/25 13:17:51;;;;;;;;;;;;;;;;;;4994043;28;20017;-82
2022/10/25 13:20:16;;;;;;;;;;;;;;;;;;4990219;28;20358;-82
2022/10/25 13:22:42;;;;;;;;;;;;;;;;;;4973943;28;19919;-83
2022/10/25 13:25:08;;;;;;;;;;;;;;;;;;4974064;28;19910;-82
2022/10/25 13:27:33;;;;;;;;;;;;;;;;;;4975241;28;19922;-82
2022/10/25 13:30:02;;;;;;;;;;;;;;;;;;4989952;28;19921;-81
2022/10/25 13:32:29;;;;;;;;;;;;;;;;;;4987150;28;19913;-83
2022/10/25 13:35:02;;;;;;;;;;;;;;;;;;4992980;28;20301;-82
2022/10/25 13:37:29;;;;;;;;;;;;;;;;;;4988189;28;19917;-82
2022/10/25 13:39:55;;;;;;;;;;;;;;;;;;4994215;28;19914;-82
2022/10/25 13:42:20;;;;;;;;;;;;;;;;;;4992808;28;19917;-81
2022/10/25 13:44:46;;;;;;;;;;;;;;;;;;4976769;28;19913;-83
2022/10/25 13:47:11;;;;;;;;;;;;;;;;;;4994177;28;20297;-82
2022/10/25 13:49:37;;;;;;;;;;;;;;;;;;4992901;28;19961;-82
2022/10/25 13:52:04;;;;;;;;;;;;;;;;;;4975808;28;19948;-82
2022/10/25 13:54:29;;;;;;;;;;;;;;;;;;4992127;28;19948;-81
2022/10/25 13:56:54;;;;;;;;;;;;;;;;;;4993151;28;19918;-82
2022/10/25 13:59:20;;;;;;;;;;;;;;;;;;4976594;28;19913;-82
2022/10/25 14:01:46;;;;;;;;;;;;;;;;;;4993756;28;19920;-83
2022/10/25 14:04:11;;;;;;;;;;;;;;;;;;4993464;28;19952;-82
2022/10/25 14:06:37;;;;;;;;;;;;;;;;;;4993921;28;19913;-82
2022/10/25 14:09:08;;;;;;;;;;;;;;;;;;4976171;28;19914;-82
2022/10/25 14:11:34;;;;;;;;;;;;;;;;;;4989252;28;19962;-81
2022/10/25 14:14:00;;;;;;;;;;;;;;;;;;4972552;28;19960;-83
2022/10/25 14:16:25;;;;;;;;;;;;;;;;;;4972833;28;19922;-82
2022/10/25 14:18:51;;;;;;;;;;;;;;;;;;4974520;28;19957;-80
2022/10/25 14:21:16;;;;;;;;;;;;;;;;;;4974576;28;19910;-82
2022/10/25 14:23:42;;;;;;;;;;;;;;;;;;4974318;28;19936;-82
2022/10/25 14:26:07;;;;;;;;;;;;;;;;;;4965881;28;19929;-82
2022/10/25 14:28:34;;;;;;;;;;;;;;;;;;4993742;28;19914;-82
2022/10/25 14:31:00;;;;;;;;;;;;;;;;;;4992552;28;19913;-82
2022/10/25 14:33:25;;;;;;;;;;;;;;;;;;4976645;28;20060;-82
2022/10/25 14:35:51;;;;;;;;;;;;;;;;;;4976979;28;19910;-82
2022/10/25 14:38:17;;;;;;;;;;;;;;;;;;4993206;28;19913;-84
2022/10/25 14:40:42;;;;;;;;;;;;;;;;;;4977314;28;19914;-82
2022/10/25 14:43:08;;;;;;;;;;;;;;;;;;4988646;28;20011;-82
2022/10/25 14:45:33;;;;;;;;;;;;;;;;;;4994654;28;20079;-83
2022/10/25 14:47:58;;;;;;;;;;;;;;;;;;4995716;28;19974;-83
2022/10/25 14:50:24;;;;;;;;;;;;;;;;;;4977691;28;19940;-82
2022/10/25 14:52:49;;;;;;;;;;;;;;;;;;4976595;28;19937;-82
2022/10/25 14:55:15;;;;;;;;;;;;;;;;;;4993713;28;20000;-82
2022/10/25 14:57:40;;;;;;;;;;;;;;;;;;4976264;28;19914;-82
2022/10/25 15:00:06;;;;;;;;;;;;;;;;;;4991711;28;20016;-82
2022/10/25 15:02:32;;;;;;;;;;;;;;;;;;5004560;28;19949;-81
2022/10/25 15:04:57;;;;;;;;;;;;;;;;;;4991860;28;20366;-84
2022/10/25 15:07:23;;;;;;;;;;;;;;;;;;4991794;28;19914;-82
2022/10/25 15:09:48;;;;;;;;;;;;;;;;;;4975696;28;19914;-82
2022/10/25 15:12:14;;;;;;;;;;;;;;;;;;4991610;28;20345;-83
2022/10/25 15:17:11;;;;;;;;;;;;;;;;;;4909415;29;19927;-84
2022/10/25 15:19:37;;;;;;;;;;;;;;;;;;4882851;29;19923;-85
2022/10/25 15:22:02;;;;;;;;;;;;;;;;;;4930314;29;19970;-86
2022/10/25 15:24:28;;;;;;;;;;;;;;;;;;4913842;29;19915;-86
2022/10/25 15:26:54;;;;;;;;;;;;;;;;;;4922497;29;20375;-84
2022/10/25 15:29:19;;;;;;;;;;;;;;;;;;4920269;29;19959;-86
2022/10/25 15:31:45;;;;;;;;;;;;;;;;;;4903532;29;19998;-86
2022/10/25 15:34:10;;;;;;;;;;;;;;;;;;4910461;29;19994;-86
2022/10/25 15:36:35;;;;;;;;;;;;;;;;;;4931970;29;20012;-86
2022/10/25 15:39:01;;;;;;;;;;;;;;;;;;4940728;29;19961;-80
2022/10/25 15:41:26;;;;;;;;;;;;;;;;;;4902489;29;20298;-80
2022/10/25 15:43:52;;;;;;;;;;;;;;;;;;4915153;29;20342;-80
2022/10/25 15:46:17;;;;;;;;;;;;;;;;;;4927108;29;19915;-81
2022/10/25 15:48:42;;;;;;;;;;;;;;;;;;4917761;29;19918;-80
2022/10/25 15:51:08;;;;;;;;;;;;;;;;;;4936027;29;19918;-80
2022/10/25 15:53:33;;;;;;;;;;;;;;;;;;4918001;29;20492;-80
2022/10/25 15:55:58;;;;;;;;;;;;;;;;;;4934532;29;19962;-80
2022/10/25 15:58:24;;;;;;;;;;;;;;;;;;4916211;29;19918;-79
2022/10/25 16:00:52;;;;;;;;;;;;;;;;;;4932534;29;20346;-80
2022/10/25 16:03:18;;;;;;;;;;;;;;;;;;4918527;29;19930;-79
2022/10/25 16:05:43;;;;;;;;;;;;;;;;;;4918273;29;19915;-80
2022/10/25 16:08:09;;;;;;;;;;;;;;;;;;4949870;29;19915;-79
2022/10/25 16:10:34;;;;;;;;;;;;;;;;;;4935328;29;19919;-79
2022/10/25 16:13:00;;;;;;;;;;;;;;;;;;4914623;29;20011;-79
2022/10/25 16:15:25;;;;;;;;;;;;;;;;;;4934155;29;19925;-81
2022/10/25 16:17:50;;;;;;;;;;;;;;;;;;4945700;29;19922;-85
2022/10/25 16:20:16;;;;;;;;;;;;;;;;;;4923600;29;19947;-86
2022/10/25 16:22:41;;;;;;;;;;;;;;;;;;4912563;29;20303;-86
2022/10/25 16:25:07;;;;;;;;;;;;;;;;;;4897027;29;20259;-87
2022/10/25 16:27:32;;;;;;;;;;;;;;;;;;4926339;29;19922;-86
2022/10/25 16:29:58;;;;;;;;;;;;;;;;;;4904080;29;20391;-87
2022/10/25 16:32:23;;;;;;;;;;;;;;;;;;4914145;29;19914;-86
2022/10/25 16:34:48;;;;;;;;;;;;;;;;;;4918639;29;20288;-86
2022/10/25 16:37:14;;;;;;;;;;;;;;;;;;4888198;29;19961;-87
2022/10/25 16:39:39;;;;;;;;;;;;;;;;;;4912136;29;19915;-87
2022/10/25 16:42:05;;;;;;;;;;;;;;;;;;4914801;29;19975;-87
2022/10/25 16:44:30;;;;;;;;;;;;;;;;;;4891950;29;19914;-86
2022/10/25 16:46:56;;;;;;;;;;;;;;;;;;4898338;29;20405;-87
2022/10/25 16:49:22;;;;;;;;;;;;;;;;;;4908454;29;19921;-86
2022/10/25 16:51:48;;;;;;;;;;;;;;;;;;4906838;29;20337;-87
2022/10/25 16:54:14;;;;;;;;;;;;;;;;;;4903843;29;19918;-87
2022/10/25 16:56:39;;;;;;;;;;;;;;;;;;4923213;29;19915;-85
2022/10/25 16:59:05;;;;;;;;;;;;;;;;;;4939507;29;20302;-84
2022/10/25 17:01:34;;;;;;;;;;;;;;;;;;4925085;29;19915;-84
2022/10/25 17:04:00;;;;;;;;;;;;;;;;;;4945146;29;19915;-85
2022/10/25 17:06:26;;;;;;;;;;;;;;;;;;4939518;29;19915;-85
2022/10/25 17:08:51;;;;;;;;;;;;;;;;;;4919285;29;20290;-84
2022/10/25 17:11:16;;;;;;;;;;;;;;;;;;4939594;29;19915;-85
2022/10/25 17:13:42;;;;;;;;;;;;;;;;;;4938605;29;19978;-85
2022/10/25 17:16:07;;;;;;;;;;;;;;;;;;4922145;29;20017;-86
2022/10/25 17:18:33;;;;;;;;;;;;;;;;;;4918712;29;19954;-85
2022/10/25 17:20:58;;;;;;;;;;;;;;;;;;4904060;29;19957;-85
2022/10/25 17:23:24;;;;;;;;;;;;;;;;;;4904231;29;19911;-86
2022/10/25 17:25:49;;;;;;;;;;;;;;;;;;4935876;29;20458;-88
2022/10/25 17:28:14;;;;;;;;;;;;;;;;;;4909952;29;20016;-84
2022/10/25 17:30:41;;;;;;;;;;;;;;;;;;4922265;29;20298;-85
2022/10/25 17:33:06;;;;;;;;;;;;;;;;;;4920881;29;19919;-86
2022/10/25 17:35:32;;;;;;;;;;;;;;;;;;4920199;29;20346;-87
2022/10/25 17:37:57;;;;;;;;;;;;;;;;;;4939324;29;19914;-86
2022/10/25 17:40:26;;;;;;;;;;;;;;;;;;4923478;29;19922;-86
2022/10/25 17:42:51;;;;;;;;;;;;;;;;;;4902699;29;19915;-87
2022/10/25 17:45:17;;;;;;;;;;;;;;;;;;4920752;29;19915;-87
2022/10/25 17:47:42;;;;;;;;;;;;;;;;;;4915533;29;19915;-86
2022/10/25 17:50:11;;;;;;;;;;;;;;;;;;4890711;29;19919;-87
2022/10/25 17:52:40;;;;;;;;;;;;;;;;;;4921296;29;19915;-86
2022/10/25 17:55:05;;;;;;;;;;;;;;;;;;4936443;29;20013;-87
2022/10/25 17:57:30;;;;;;;;;;;;;;;;;;4901364;29;19989;-79
2022/10/25 17:59:57;;;;;;;;;;;;;;;;;;4930956;29;19954;-79
2022/10/25 18:02:22;;;;;;;;;;;;;;;;;;4918242;29;19915;-79
2022/10/25 18:04:48;;;;;;;;;;;;;;;;;;4940861;29;19922;-87
2022/10/25 18:07:14;;;;;;;;;;;;;;;;;;5006862;23;19936;-93
2022/10/25 18:09:40;;;;;;;;;;;;;;;;;;4958052;28;20127;-93
2022/10/25 18:12:08;;;;;;;;;;;;;;;;;;4969812;28;19942;-92
2022/10/25 18:14:33;;;;;;;;;;;;;;;;;;4972413;29;19925;-92
2022/10/25 18:16:59;;;;;;;;;;;;;;;;;;4959457;29;19914;-93
2022/10/25 18:19:24;;;;;;;;;;;;;;;;;;4943685;29;19922;-91
2022/10/25 18:21:50;;;;;;;;;;;;;;;;;;4934770;29;19970;-92
2022/10/25 18:24:15;;;;;;;;;;;;;;;;;;4969777;29;19914;-92
2022/10/25 18:26:41;;;;;;;;;;;;;;;;;;4948085;29;19922;-91
2022/10/25 18:29:06;;;;;;;;;;;;;;;;;;4925303;29;19915;-92
2022/10/25 18:31:35;;;;;;;;;;;;;;;;;;4903118;29;19914;-93
2022/10/25 18:34:03;;;;;;;;;;;;;;;;;;4956160;29;19930;-93
2022/10/25 18:36:28;;;;;;;;;;;;;;;;;;4928389;29;20378;-93
2022/10/25 18:38:54;;;;;;;;;;;;;;;;;;4910227;29;19942;-93